Time;durP1;ratioP1;P1;durP2;ratioP2;P2;SDS_P1;SDS_P2;PMS_P1;PMS_P2;Temp;Humidity;BMP_temperature;BMP_pressure;BME280_temperature;BME280_humidity;BME280_pressure;Samples;Min_cycle;Max_cycle;Signal;HPM_P1;HPM_P2
2021/09/04 00:00:15;;;;;;;3.80;1.33;;;;;;;;;;5031810;28;20065;-90
2021/09/04 00:02:41;;;;;;;7.65;1.75;;;;;;;;;;5025316;28;20065;-90
2021/09/04 00:05:08;;;;;;;3.08;1.63;;;;;;;;;;5027590;28;20512;-87
2021/09/04 00:07:35;;;;;;;3.03;1.50;;;;;;;;;;5017883;28;20064;-89
2021/09/04 00:10:01;;;;;;;3.55;1.73;;;;;;;;;;5026177;28;20565;-87
2021/09/04 00:12:28;;;;;;;3.70;1.77;;;;;;;;;;5026579;28;20050;-87
2021/09/04 00:14:55;;;;;;;2.88;1.60;;;;;;;;;;5031583;28;20053;-89
2021/09/04 00:17:21;;;;;;;3.45;1.60;;;;;;;;;;5029176;28;20064;-89
2021/09/04 00:19:48;;;;;;;4.88;1.55;;;;;;;;;;5016451;28;20053;-90
2021/09/04 00:22:14;;;;;;;3.33;1.67;;;;;;;;;;5023099;28;20049;-89
2021/09/04 00:24:41;;;;;;;2.90;1.60;;;;;;;;;;5021912;28;20586;-89
2021/09/04 00:27:07;;;;;;;3.92;1.85;;;;;;;;;;5026876;28;20062;-90
2021/09/04 00:29:34;;;;;;;2.67;1.60;;;;;;;;;;5033155;28;20064;-89
2021/09/04 00:32:01;;;;;;;3.22;1.50;;;;;;;;;;5021187;28;20057;-89
2021/09/04 00:34:27;;;;;;;4.40;1.65;;;;;;;;;;5035189;28;20060;-90
2021/09/04 00:36:54;;;;;;;3.17;1.40;;;;;;;;;;5021830;28;20053;-87
2021/09/04 00:39:20;;;;;;;3.97;1.83;;;;;;;;;;5020282;28;20065;-88
2021/09/04 00:41:47;;;;;;;3.72;1.80;;;;;;;;;;5023376;28;20057;-87
2021/09/04 00:44:17;;;;;;;3.30;1.73;;;;;;;;;;5029898;28;20049;-87
2021/09/04 00:46:44;;;;;;;2.93;1.73;;;;;;;;;;5031439;28;20077;-87
2021/09/04 00:49:11;;;;;;;3.47;1.55;;;;;;;;;;5033570;28;20504;-88
2021/09/04 00:51:37;;;;;;;3.40;1.60;;;;;;;;;;5029975;28;20451;-86
2021/09/04 00:54:05;;;;;;;4.25;2.08;;;;;;;;;;5022268;28;20553;-86
2021/09/04 00:56:31;;;;;;;4.55;1.58;;;;;;;;;;5027761;28;20478;-88
2021/09/04 00:59:01;;;;;;;3.70;1.98;;;;;;;;;;5021947;28;20058;-87
2021/09/04 01:01:27;;;;;;;3.65;1.67;;;;;;;;;;5020341;28;20053;-88
2021/09/04 01:03:54;;;;;;;3.50;1.95;;;;;;;;;;5033567;28;20067;-87
2021/09/04 01:06:20;;;;;;;4.30;1.75;;;;;;;;;;5030481;28;20037;-87
2021/09/04 01:08:47;;;;;;;3.45;1.73;;;;;;;;;;5024115;28;20064;-86
2021/09/04 01:11:14;;;;;;;4.05;1.50;;;;;;;;;;5022774;28;20060;-84
2021/09/04 01:13:41;;;;;;;3.95;1.83;;;;;;;;;;5013515;28;20464;-86
2021/09/04 01:16:08;;;;;;;3.55;1.88;;;;;;;;;;5023465;28;20046;-86
2021/09/04 01:18:34;;;;;;;3.33;1.60;;;;;;;;;;5027643;28;20060;-87
2021/09/04 01:21:01;;;;;;;3.80;1.73;;;;;;;;;;5012648;28;20053;-85
2021/09/04 01:23:27;;;;;;;2.85;1.50;;;;;;;;;;5020703;28;20061;-85
2021/09/04 01:25:55;;;;;;;2.90;1.67;;;;;;;;;;5030576;28;20069;-84
2021/09/04 01:28:21;;;;;;;3.03;1.80;;;;;;;;;;5021509;28;20064;-85
2021/09/04 01:30:48;;;;;;;3.90;2.13;;;;;;;;;;5021281;28;20445;-85
2021/09/04 01:33:15;;;;;;;5.30;1.88;;;;;;;;;;5023390;28;20069;-85
2021/09/04 01:35:42;;;;;;;6.53;1.92;;;;;;;;;;5015099;28;20502;-87
2021/09/04 01:38:08;;;;;;;4.78;2.03;;;;;;;;;;5014886;28;20139;-88
2021/09/04 01:40:35;;;;;;;4.53;1.40;;;;;;;;;;5019110;28;20088;-87
2021/09/04 01:43:01;;;;;;;3.60;1.67;;;;;;;;;;5012433;28;20149;-87
2021/09/04 01:45:27;;;;;;;5.15;2.03;;;;;;;;;;5026151;28;20439;-86
2021/09/04 01:47:54;;;;;;;3.67;1.67;;;;;;;;;;5030218;28;20076;-86
2021/09/04 01:50:20;;;;;;;3.65;1.98;;;;;;;;;;5027297;28;20037;-87
2021/09/04 01:52:47;;;;;;;4.38;2.00;;;;;;;;;;5027288;28;20065;-86
2021/09/04 01:55:15;;;;;;;5.10;2.10;;;;;;;;;;5015721;28;20075;-86
2021/09/04 01:57:41;;;;;;;3.47;1.55;;;;;;;;;;5025317;28;20118;-85
2021/09/04 02:00:12;;;;;;;4.43;1.92;;;;;;;;;;5022516;28;20061;-86
2021/09/04 02:02:38;;;;;;;4.18;2.08;;;;;;;;;;5026258;28;20061;-87
2021/09/04 02:05:06;;;;;;;3.53;2.10;;;;;;;;;;5020023;28;21371;-86
2021/09/04 02:07:32;;;;;;;3.25;1.70;;;;;;;;;;5019923;28;20097;-84
2021/09/04 02:09:58;;;;;;;4.13;1.83;;;;;;;;;;5017621;28;20122;-87
2021/09/04 02:12:25;;;;;;;4.88;2.03;;;;;;;;;;5023246;28;20057;-87
2021/09/04 02:14:52;;;;;;;4.18;2.15;;;;;;;;;;5031784;28;20057;-88
2021/09/04 02:17:18;;;;;;;3.40;1.65;;;;;;;;;;5020837;28;20479;-88
2021/09/04 02:19:45;;;;;;;3.88;1.92;;;;;;;;;;4997733;28;20053;-88
2021/09/04 02:22:12;;;;;;;3.38;2.00;;;;;;;;;;5001608;28;20080;-87
2021/09/04 02:24:39;;;;;;;4.97;2.00;;;;;;;;;;5001081;28;20065;-83
2021/09/04 02:27:06;;;;;;;5.32;1.92;;;;;;;;;;5012179;28;20124;-87
2021/09/04 02:29:32;;;;;;;3.67;1.70;;;;;;;;;;4997181;28;20049;-87
2021/09/04 02:31:59;;;;;;;4.90;1.73;;;;;;;;;;5008651;28;20073;-86
2021/09/04 02:34:25;;;;;;;3.92;1.63;;;;;;;;;;5007608;28;20494;-87
2021/09/04 02:36:52;;;;;;;3.67;1.75;;;;;;;;;;4999344;28;20067;-87
2021/09/04 02:39:18;;;;;;;3.47;1.77;;;;;;;;;;4996894;28;20600;-86
2021/09/04 02:41:44;;;;;;;4.72;1.90;;;;;;;;;;5002871;28;20057;-84
2021/09/04 02:44:11;;;;;;;4.05;1.98;;;;;;;;;;5009192;28;20479;-85
2021/09/04 02:46:37;;;;;;;3.75;2.03;;;;;;;;;;5001587;28;20070;-88
2021/09/04 02:49:04;;;;;;;3.90;1.80;;;;;;;;;;5016945;28;20057;-87
2021/09/04 02:51:30;;;;;;;3.95;2.03;;;;;;;;;;5011883;28;20109;-87
2021/09/04 02:53:57;;;;;;;3.78;1.50;;;;;;;;;;5013717;28;20054;-86
2021/09/04 02:56:23;;;;;;;5.10;1.80;;;;;;;;;;5001724;28;20066;-88
2021/09/04 02:58:49;;;;;;;4.40;2.00;;;;;;;;;;5015693;28;20066;-87
2021/09/04 03:01:16;;;;;;;3.60;1.98;;;;;;;;;;5017656;28;20056;-86
2021/09/04 03:03:42;;;;;;;4.25;2.28;;;;;;;;;;5004372;28;20566;-86
2021/09/04 03:06:09;;;;;;;3.70;1.75;;;;;;;;;;5001712;28;20054;-88
2021/09/04 03:08:35;;;;;;;3.33;1.70;;;;;;;;;;5027745;28;20064;-87
2021/09/04 03:11:04;;;;;;;5.15;2.00;;;;;;;;;;5022241;28;20052;-84
2021/09/04 03:13:30;;;;;;;3.95;1.98;;;;;;;;;;5029712;28;20123;-85
2021/09/04 03:15:57;;;;;;;2.88;1.50;;;;;;;;;;5015106;28;20709;-86
2021/09/04 03:18:23;;;;;;;5.22;1.88;;;;;;;;;;5033810;28;20072;-88
2021/09/04 03:20:50;;;;;;;4.93;2.08;;;;;;;;;;5030893;28;20060;-89
2021/09/04 03:23:16;;;;;;;4.22;1.92;;;;;;;;;;5029167;28;20068;-89
2021/09/04 03:25:42;;;;;;;5.68;2.35;;;;;;;;;;5013019;28;20052;-90
2021/09/04 03:28:09;;;;;;;3.92;1.80;;;;;;;;;;5033727;28;20061;-89
2021/09/04 03:30:35;;;;;;;4.72;2.00;;;;;;;;;;5028600;28;20057;-89
2021/09/04 03:33:02;;;;;;;3.33;1.52;;;;;;;;;;5027644;28;20056;-89
2021/09/04 03:35:28;;;;;;;4.03;1.75;;;;;;;;;;5027621;28;20053;-88
2021/09/04 03:37:55;;;;;;;3.75;1.85;;;;;;;;;;5018020;28;20127;-87
2021/09/04 03:40:21;;;;;;;3.78;1.60;;;;;;;;;;5032985;28;20079;-87
2021/09/04 03:42:47;;;;;;;3.45;1.73;;;;;;;;;;5023230;28;20067;-86
2021/09/04 03:45:14;;;;;;;3.67;1.92;;;;;;;;;;5018840;28;20061;-86
2021/09/04 03:47:40;;;;;;;4.07;1.60;;;;;;;;;;5032638;28;20065;-86
2021/09/04 03:50:07;;;;;;;3.78;1.60;;;;;;;;;;5031471;28;20049;-86
2021/09/04 03:52:33;;;;;;;3.22;1.83;;;;;;;;;;5030232;28;20138;-86
2021/09/04 03:55:00;;;;;;;3.92;1.83;;;;;;;;;;5020470;28;20053;-85
2021/09/04 03:57:26;;;;;;;5.03;1.98;;;;;;;;;;5029799;28;20057;-87
2021/09/04 03:59:52;;;;;;;3.95;1.88;;;;;;;;;;5026271;28;20057;-89
2021/09/04 04:02:19;;;;;;;3.28;1.70;;;;;;;;;;5030057;28;20485;-86
2021/09/04 04:04:45;;;;;;;4.32;2.08;;;;;;;;;;5024213;28;20057;-86
2021/09/04 04:07:11;;;;;;;4.82;2.05;;;;;;;;;;5025240;28;20049;-86
2021/09/04 04:09:38;;;;;;;3.60;1.73;;;;;;;;;;5025912;28;20057;-85
2021/09/04 04:12:04;;;;;;;5.25;2.10;;;;;;;;;;5018973;28;21345;-85
2021/09/04 04:14:31;;;;;;;3.83;1.80;;;;;;;;;;5022115;28;20072;-85
2021/09/04 04:16:58;;;;;;;3.85;2.00;;;;;;;;;;5017649;28;20460;-85
2021/09/04 04:19:26;;;;;;;4.53;1.63;;;;;;;;;;5015206;28;20056;-88
2021/09/04 04:21:52;;;;;;;3.80;1.90;;;;;;;;;;5014581;28;20123;-88
2021/09/04 04:24:18;;;;;;;4.18;1.92;;;;;;;;;;5024410;28;20497;-89
2021/09/04 04:26:45;;;;;;;4.18;1.58;;;;;;;;;;5020346;28;20057;-89
2021/09/04 04:29:11;;;;;;;3.20;1.58;;;;;;;;;;5014487;28;20081;-89
2021/09/04 04:31:39;;;;;;;4.93;2.10;;;;;;;;;;5024172;28;20057;-88
2021/09/04 04:34:06;;;;;;;4.20;1.60;;;;;;;;;;5021225;28;20230;-88
2021/09/04 04:36:33;;;;;;;3.97;1.77;;;;;;;;;;5023979;28;20065;-91
2021/09/04 04:38:59;;;;;;;4.32;1.77;;;;;;;;;;5020203;28;20069;-90
2021/09/04 04:41:26;;;;;;;3.95;1.77;;;;;;;;;;5019776;28;20053;-89
2021/09/04 04:43:52;;;;;;;4.53;2.00;;;;;;;;;;5016273;28;20058;-90
2021/09/04 04:46:19;;;;;;;5.28;2.20;;;;;;;;;;5023146;28;20466;-82
2021/09/04 04:48:45;;;;;;;5.93;2.00;;;;;;;;;;5027615;28;20073;-83
2021/09/04 04:51:11;;;;;;;3.17;1.88;;;;;;;;;;5018235;28;20069;-82
2021/09/04 04:53:39;;;;;;;4.65;2.13;;;;;;;;;;5031206;28;20490;-82
2021/09/04 04:56:05;;;;;;;5.18;1.70;;;;;;;;;;5020610;28;20450;-81
2021/09/04 04:58:32;;;;;;;4.72;1.85;;;;;;;;;;5022529;28;20056;-82
2021/09/04 05:00:59;;;;;;;4.93;1.90;;;;;;;;;;5015679;28;21136;-82
2021/09/04 05:03:25;;;;;;;4.18;1.90;;;;;;;;;;5016712;28;20068;-82
2021/09/04 05:05:52;;;;;;;3.92;1.75;;;;;;;;;;5016439;28;20655;-82
2021/09/04 05:08:18;;;;;;;4.03;1.75;;;;;;;;;;5016500;28;20077;-81
2021/09/04 05:10:44;;;;;;;3.80;1.77;;;;;;;;;;5009141;28;20060;-80
2021/09/04 05:13:11;;;;;;;4.70;1.70;;;;;;;;;;5015600;28;20438;-81
2021/09/04 05:15:37;;;;;;;3.97;1.80;;;;;;;;;;5018215;28;20033;-83
2021/09/04 05:18:04;;;;;;;5.78;1.90;;;;;;;;;;5015542;28;20108;-83
2021/09/04 05:20:30;;;;;;;4.47;1.67;;;;;;;;;;5020940;28;20048;-83
2021/09/04 05:22:57;;;;;;;4.15;1.70;;;;;;;;;;5011259;28;20065;-82
2021/09/04 05:25:23;;;;;;;3.80;1.60;;;;;;;;;;5009969;28;20116;-82
2021/09/04 05:27:49;;;;;;;4.20;1.58;;;;;;;;;;5010264;28;20070;-83
2021/09/04 05:30:16;;;;;;;4.03;1.70;;;;;;;;;;5013355;28;20068;-82
2021/09/04 05:32:42;;;;;;;3.00;1.38;;;;;;;;;;5014241;28;20049;-83
2021/09/04 05:35:09;;;;;;;3.72;1.60;;;;;;;;;;5017115;28;20519;-82
2021/09/04 05:37:35;;;;;;;4.13;2.05;;;;;;;;;;5016957;28;20047;-81
2021/09/04 05:40:01;;;;;;;3.15;1.40;;;;;;;;;;5012035;28;20087;-82
2021/09/04 05:42:28;;;;;;;3.67;1.67;;;;;;;;;;5016765;28;20084;-81
2021/09/04 05:44:54;;;;;;;4.43;1.52;;;;;;;;;;5013994;28;20066;-82
2021/09/04 05:47:21;;;;;;;2.97;1.40;;;;;;;;;;5014094;28;20077;-81
2021/09/04 05:49:47;;;;;;;4.90;1.52;;;;;;;;;;5016850;28;20061;-81
2021/09/04 05:52:13;;;;;;;3.17;1.40;;;;;;;;;;5023264;28;20053;-83
2021/09/04 05:54:40;;;;;;;2.85;1.48;;;;;;;;;;5014671;28;20099;-82
2021/09/04 05:57:06;;;;;;;3.63;1.70;;;;;;;;;;5018324;28;20068;-81
2021/09/04 05:59:32;;;;;;;4.00;1.95;;;;;;;;;;5031087;28;20060;-83
2021/09/04 06:01:59;;;;;;;3.33;1.40;;;;;;;;;;5021390;28;20065;-83
2021/09/04 06:04:25;;;;;;;4.05;1.65;;;;;;;;;;5026150;28;20072;-86
2021/09/04 06:06:52;;;;;;;2.67;1.55;;;;;;;;;;5021305;28;20131;-86
2021/09/04 06:09:18;;;;;;;3.00;1.73;;;;;;;;;;5027599;28;20046;-86
2021/09/04 06:11:45;;;;;;;2.90;1.52;;;;;;;;;;5020034;28;20030;-83
2021/09/04 06:14:11;;;;;;;2.22;1.30;;;;;;;;;;5023853;28;20057;-85
2021/09/04 06:16:37;;;;;;;3.50;1.45;;;;;;;;;;5023848;28;20118;-86
2021/09/04 06:19:04;;;;;;;4.07;1.60;;;;;;;;;;5024024;28;20150;-85
2021/09/04 06:21:30;;;;;;;3.00;1.30;;;;;;;;;;5015147;28;20064;-85
2021/09/04 06:23:56;;;;;;;2.80;1.60;;;;;;;;;;5025486;28;20073;-86
2021/09/04 06:26:23;;;;;;;2.88;1.52;;;;;;;;;;5017552;28;20060;-85
2021/09/04 06:28:49;;;;;;;3.03;1.63;;;;;;;;;;5024885;28;20065;-86
2021/09/04 06:31:16;;;;;;;3.75;1.60;;;;;;;;;;5020463;28;20033;-86
2021/09/04 06:33:42;;;;;;;2.67;1.23;;;;;;;;;;5022018;28;20496;-85
2021/09/04 06:36:08;;;;;;;3.35;1.40;;;;;;;;;;5018641;28;20068;-84
2021/09/04 06:38:35;;;;;;;2.22;1.10;;;;;;;;;;5015534;28;20135;-87
2021/09/04 06:41:01;;;;;;;3.28;1.60;;;;;;;;;;5020671;28;20064;-88
2021/09/04 06:43:28;;;;;;;2.67;1.50;;;;;;;;;;5019859;28;20552;-87
2021/09/04 06:45:54;;;;;;;3.33;1.50;;;;;;;;;;5022679;28;20059;-86
2021/09/04 06:48:21;;;;;;;4.53;1.60;;;;;;;;;;5020293;28;20117;-87
2021/09/04 06:50:47;;;;;;;3.30;1.45;;;;;;;;;;5027079;28;20037;-86
2021/09/04 06:53:13;;;;;;;12.18;3.38;;;;;;;;;;5024383;28;20510;-83
2021/09/04 06:55:40;;;;;;;9.98;3.10;;;;;;;;;;5021453;28;20068;-83
2021/09/04 06:58:06;;;;;;;7.95;2.97;;;;;;;;;;5021705;28;20572;-83
2021/09/04 07:00:33;;;;;;;10.15;2.63;;;;;;;;;;5029071;28;20072;-91
2021/09/04 07:02:59;;;;;;;6.18;2.20;;;;;;;;;;5026007;28;20057;-90
2021/09/04 07:05:25;;;;;;;8.77;2.67;;;;;;;;;;5030223;28;20417;-91
2021/09/04 07:07:52;;;;;;;5.80;2.15;;;;;;;;;;5026286;28;20069;-91
2021/09/04 07:10:18;;;;;;;4.68;1.67;;;;;;;;;;5027850;28;20066;-91
2021/09/04 07:12:45;;;;;;;3.67;1.60;;;;;;;;;;5027145;28;20061;-90
2021/09/04 07:15:12;;;;;;;4.07;1.83;;;;;;;;;;5033322;28;20065;-90
2021/09/04 07:17:38;;;;;;;7.20;1.88;;;;;;;;;;5024009;28;20061;-90
2021/09/04 07:20:05;;;;;;;4.50;1.73;;;;;;;;;;5028664;28;20599;-91
2021/09/04 07:22:32;;;;;;;4.22;1.90;;;;;;;;;;5021326;28;20390;-90
2021/09/04 07:24:58;;;;;;;3.42;1.98;;;;;;;;;;5038584;28;20509;-90
2021/09/04 07:27:24;;;;;;;5.28;1.52;;;;;;;;;;5012497;28;20077;-91
2021/09/04 07:29:51;;;;;;;3.72;1.50;;;;;;;;;;5003535;28;20042;-89
2021/09/04 07:32:17;;;;;;;4.72;1.67;;;;;;;;;;5011382;28;20056;-89
2021/09/04 07:34:43;;;;;;;4.05;1.25;;;;;;;;;;5037621;28;20066;-91
2021/09/04 07:37:10;;;;;;;5.20;1.50;;;;;;;;;;5008276;28;20045;-91
2021/09/04 07:39:36;;;;;;;5.57;1.60;;;;;;;;;;5018466;28;20053;-91
2021/09/04 07:42:03;;;;;;;4.90;2.08;;;;;;;;;;5021703;28;20057;-91
2021/09/04 07:44:29;;;;;;;4.15;1.90;;;;;;;;;;5019821;28;20062;-89
2021/09/04 07:46:56;;;;;;;4.25;1.90;;;;;;;;;;5017429;28;20072;-91
2021/09/04 07:49:22;;;;;;;4.28;1.80;;;;;;;;;;5021936;28;20045;-90
2021/09/04 07:51:48;;;;;;;6.55;2.00;;;;;;;;;;5028959;28;20534;-89
2021/09/04 07:54:15;;;;;;;4.55;1.80;;;;;;;;;;5038315;28;20069;-89
2021/09/04 07:56:41;;;;;;;5.07;1.67;;;;;;;;;;5021056;28;20038;-90
2021/09/04 07:59:08;;;;;;;4.45;1.88;;;;;;;;;;5021011;28;20462;-90
2021/09/04 08:01:35;;;;;;;3.63;1.42;;;;;;;;;;5024562;28;20034;-89
2021/09/04 08:04:01;;;;;;;6.32;1.80;;;;;;;;;;5027136;28;20128;-89
2021/09/04 08:06:27;;;;;;;4.47;1.42;;;;;;;;;;5028090;28;20529;-88
2021/09/04 08:08:54;;;;;;;4.60;1.88;;;;;;;;;;5027779;28;20073;-91
2021/09/04 08:11:20;;;;;;;5.20;1.88;;;;;;;;;;5023493;28;20071;-89
2021/09/04 08:13:47;;;;;;;2.75;1.38;;;;;;;;;;5016424;28;20069;-89
2021/09/04 08:16:13;;;;;;;3.42;1.63;;;;;;;;;;5023709;28;20065;-90
2021/09/04 08:18:39;;;;;;;3.53;1.50;;;;;;;;;;5013112;28;20492;-91
2021/09/04 08:21:06;;;;;;;3.40;1.60;;;;;;;;;;5029760;28;20294;-91
2021/09/04 08:23:32;;;;;;;4.45;1.67;;;;;;;;;;5028185;28;20141;-92
2021/09/04 08:25:59;;;;;;;3.72;1.40;;;;;;;;;;5029148;28;20053;-90
2021/09/04 08:28:25;;;;;;;3.67;1.30;;;;;;;;;;5019696;28;20228;-89
2021/09/04 08:30:51;;;;;;;5.05;1.70;;;;;;;;;;5026042;28;20065;-90
2021/09/04 08:33:18;;;;;;;3.42;1.70;;;;;;;;;;5022033;28;20060;-90
2021/09/04 08:35:45;;;;;;;4.13;1.50;;;;;;;;;;5027184;28;20417;-90
2021/09/04 08:38:11;;;;;;;3.58;1.35;;;;;;;;;;5021795;28;20549;-89
2021/09/04 08:40:42;;;;;;;4.40;1.60;;;;;;;;;;5027007;28;20056;-90
2021/09/04 08:43:08;;;;;;;3.63;1.70;;;;;;;;;;5022762;28;20081;-91
2021/09/04 08:45:35;;;;;;;2.85;1.45;;;;;;;;;;5016082;28;20033;-88
2021/09/04 08:48:01;;;;;;;3.72;1.65;;;;;;;;;;5020831;28;20065;-91
2021/09/04 08:50:27;;;;;;;3.30;1.50;;;;;;;;;;5016879;28;20068;-90
2021/09/04 08:52:56;;;;;;;3.85;1.65;;;;;;;;;;5022397;28;20061;-90
2021/09/04 08:55:23;;;;;;;3.10;1.70;;;;;;;;;;5021872;28;20096;-89
2021/09/04 08:57:49;;;;;;;3.97;1.50;;;;;;;;;;5020757;28;20061;-89
2021/09/04 09:00:47;;;;;;;4.80;1.88;;;;;;;;;;5024057;28;20487;-90
2021/09/04 09:03:20;;;;;;;4.13;1.77;;;;;;;;;;5020684;28;20104;-90
2021/09/04 09:05:46;;;;;;;3.97;1.60;;;;;;;;;;5018139;28;20073;-89
2021/09/04 09:08:23;;;;;;;4.05;1.73;;;;;;;;;;5020973;28;20073;-89
2021/09/04 09:10:51;;;;;;;4.50;1.95;;;;;;;;;;5021704;28;20037;-91
2021/09/04 09:13:18;;;;;;;3.20;1.70;;;;;;;;;;5025225;28;20458;-91
2021/09/04 09:15:45;;;;;;;5.30;1.80;;;;;;;;;;5027091;28;20026;-90
2021/09/04 09:18:15;;;;;;;4.40;2.00;;;;;;;;;;5025811;28;20029;-90
2021/09/04 09:20:43;;;;;;;4.47;1.98;;;;;;;;;;5033464;28;20556;-90
2021/09/04 09:23:11;;;;;;;3.63;1.73;;;;;;;;;;5026069;28;20041;-90
2021/09/04 09:25:40;;;;;;;3.97;1.88;;;;;;;;;;5036016;28;20045;-89
2021/09/04 09:28:06;;;;;;;3.88;1.75;;;;;;;;;;5039667;28;21195;-89
2021/09/04 09:30:34;;;;;;;3.22;1.67;;;;;;;;;;5035268;28;20041;-91
2021/09/04 09:33:01;;;;;;;2.85;1.40;;;;;;;;;;5029420;28;20419;-90
2021/09/04 09:35:38;;;;;;;3.30;1.42;;;;;;;;;;5034476;28;20030;-91
2021/09/04 09:38:05;;;;;;;3.92;2.00;;;;;;;;;;5031267;28;20038;-90
2021/09/04 09:40:32;;;;;;;3.60;1.55;;;;;;;;;;5032237;28;20062;-90
2021/09/04 09:42:59;;;;;;;4.35;1.73;;;;;;;;;;5033414;28;20042;-89
2021/09/04 09:45:45;;;;;;;4.43;1.55;;;;;;;;;;5035451;28;20086;-90
2021/09/04 09:48:15;;;;;;;4.45;1.90;;;;;;;;;;5027135;28;20095;-91
2021/09/04 09:50:42;;;;;;;3.88;1.98;;;;;;;;;;5032044;28;20117;-90
2021/09/04 09:53:08;;;;;;;3.10;1.50;;;;;;;;;;5035409;28;20462;-90
2021/09/04 09:55:35;;;;;;;3.00;1.70;;;;;;;;;;5032453;28;20033;-89
2021/09/04 09:58:01;;;;;;;3.70;1.60;;;;;;;;;;5035961;28;20639;-90
2021/09/04 10:00:29;;;;;;;2.88;1.58;;;;;;;;;;5035043;28;20049;-90
2021/09/04 10:02:58;;;;;;;4.90;1.65;;;;;;;;;;5032339;28;20107;-91
2021/09/04 10:05:26;;;;;;;4.13;1.80;;;;;;;;;;5031455;28;20033;-89
2021/09/04 10:07:57;;;;;;;3.67;1.58;;;;;;;;;;5025620;28;20411;-90
2021/09/04 10:10:25;;;;;;;3.17;1.60;;;;;;;;;;5020121;28;20049;-89
2021/09/04 10:12:52;;;;;;;2.90;1.60;;;;;;;;;;5032601;28;20102;-90
2021/09/04 10:15:19;;;;;;;3.95;1.67;;;;;;;;;;5038317;28;20139;-89
2021/09/04 10:17:47;;;;;;;3.00;1.63;;;;;;;;;;5027365;28;20107;-90
2021/09/04 10:20:14;;;;;;;3.00;1.45;;;;;;;;;;5040986;28;20122;-90
2021/09/04 10:22:41;;;;;;;3.30;1.50;;;;;;;;;;5037024;28;20026;-87
2021/09/04 10:25:15;;;;;;;3.65;1.55;;;;;;;;;;5029205;28;20034;-90
2021/09/04 10:27:42;;;;;;;3.33;1.65;;;;;;;;;;5022985;28;20060;-85
2021/09/04 10:30:25;;;;;;;4.07;1.42;;;;;;;;;;5032652;28;20057;-90
2021/09/04 10:33:11;;;;;;;4.82;1.70;;;;;;;;;;5015406;28;20088;-88
2021/09/04 10:35:39;;;;;;;2.70;1.38;;;;;;;;;;5027942;28;20037;-89
2021/09/04 10:38:25;;;;;;;3.40;1.60;;;;;;;;;;5029491;28;20453;-90
2021/09/04 10:41:12;;;;;;;3.60;1.50;;;;;;;;;;5027226;28;20041;-89
2021/09/04 10:43:42;;;;;;;2.33;1.30;;;;;;;;;;5029598;28;20434;-91
2021/09/04 10:46:09;;;;;;;3.17;1.40;;;;;;;;;;5023099;28;20053;-90
2021/09/04 10:48:37;;;;;;;2.65;1.40;;;;;;;;;;5025031;28;20065;-90
2021/09/04 10:51:03;;;;;;;3.88;1.40;;;;;;;;;;5020498;28;20053;-89
2021/09/04 10:53:42;;;;;;;3.72;1.50;;;;;;;;;;5024949;28;20088;-89
2021/09/04 10:56:22;;;;;;;3.03;1.48;;;;;;;;;;5026659;28;21595;-89
2021/09/04 10:58:49;;;;;;;3.38;1.60;;;;;;;;;;5025382;28;20101;-90
2021/09/04 11:01:17;;;;;;;3.47;1.38;;;;;;;;;;5019772;28;20209;-88
2021/09/04 11:03:44;;;;;;;2.60;1.33;;;;;;;;;;5024723;28;20095;-86
2021/09/04 11:06:18;;;;;;;3.22;1.60;;;;;;;;;;5025360;28;20532;-88
2021/09/04 11:08:45;;;;;;;4.60;1.23;;;;;;;;;;5022575;28;20797;-90
2021/09/04 11:11:29;;;;;;;2.40;1.20;;;;;;;;;;5025147;28;20092;-91
2021/09/04 11:13:57;;;;;;;3.78;1.70;;;;;;;;;;5028149;28;20516;-89
2021/09/04 11:16:26;;;;;;;2.40;1.15;;;;;;;;;;5026988;28;20115;-89
2021/09/04 11:18:52;;;;;;;2.53;1.20;;;;;;;;;;5028760;28;20033;-90
2021/09/04 11:21:19;;;;;;;2.92;1.40;;;;;;;;;;5026041;28;20059;-90
2021/09/04 11:23:46;;;;;;;3.28;1.30;;;;;;;;;;5026040;28;20058;-89
2021/09/04 11:26:13;;;;;;;2.75;1.30;;;;;;;;;;5019772;28;20080;-90
2021/09/04 11:28:39;;;;;;;2.42;1.48;;;;;;;;;;5024499;28;20127;-88
2021/09/04 11:31:06;;;;;;;3.72;1.50;;;;;;;;;;5036291;28;20567;-89
2021/09/04 11:33:32;;;;;;;3.60;1.25;;;;;;;;;;5021921;28;20042;-89
2021/09/04 11:35:58;;;;;;;2.45;1.13;;;;;;;;;;5019308;28;20058;-90
2021/09/04 11:38:25;;;;;;;3.78;1.73;;;;;;;;;;5025137;28;20042;-86
2021/09/04 11:40:52;;;;;;;4.88;1.75;;;;;;;;;;5020145;28;20053;-85
2021/09/04 11:43:24;;;;;;;10.43;1.77;;;;;;;;;;5022782;28;20057;-87
2021/09/04 11:46:01;;;;;;;3.65;1.38;;;;;;;;;;5014500;28;20446;-88
2021/09/04 11:48:27;;;;;;;2.58;1.42;;;;;;;;;;5021387;28;20085;-87
2021/09/04 11:51:03;;;;;;;3.35;1.23;;;;;;;;;;5021510;28;20021;-88
2021/09/04 11:53:29;;;;;;;3.42;1.30;;;;;;;;;;5013782;28;20065;-83
2021/09/04 11:55:55;;;;;;;2.30;1.10;;;;;;;;;;5010197;28;20442;-83
2021/09/04 11:58:22;;;;;;;3.70;1.20;;;;;;;;;;5015112;28;20061;-86
2021/09/04 12:00:48;;;;;;;3.00;1.23;;;;;;;;;;5018062;28;20054;-86
2021/09/04 12:03:15;;;;;;;2.83;1.40;;;;;;;;;;5022902;28;20061;-84
2021/09/04 12:05:46;;;;;;;4.75;1.27;;;;;;;;;;5017330;28;20057;-84
2021/09/04 12:08:14;;;;;;;3.88;1.38;;;;;;;;;;5010931;28;21428;-86
2021/09/04 12:10:42;;;;;;;3.25;1.13;;;;;;;;;;5016818;28;20061;-86
2021/09/04 12:13:28;;;;;;;4.07;1.38;;;;;;;;;;5011589;28;20354;-84
2021/09/04 12:15:55;;;;;;;2.20;1.20;;;;;;;;;;5014838;28;20045;-85
2021/09/04 12:18:31;;;;;;;3.35;1.30;;;;;;;;;;5019238;28;20549;-86
2021/09/04 12:20:58;;;;;;;2.35;1.30;;;;;;;;;;5019476;28;20057;-85
2021/09/04 12:23:25;;;;;;;2.70;1.15;;;;;;;;;;5020954;28;20058;-86
2021/09/04 12:26:04;;;;;;;5.78;1.52;;;;;;;;;;5016487;28;20122;-82
2021/09/04 12:28:30;;;;;;;3.80;1.10;;;;;;;;;;5014530;28;20135;-84
2021/09/04 12:31:00;;;;;;;2.65;1.02;;;;;;;;;;5021425;28;20488;-78
2021/09/04 12:33:27;;;;;;;3.42;1.23;;;;;;;;;;5009929;28;20081;-79
2021/09/04 12:35:57;;;;;;;2.80;1.10;;;;;;;;;;5016672;28;20152;-80
2021/09/04 12:38:53;;;;;;;2.42;1.30;;;;;;;;;;5012920;28;20073;-78
2021/09/04 12:41:20;;;;;;;2.25;1.10;;;;;;;;;;5005494;28;20243;-79
2021/09/04 12:43:52;;;;;;;2.17;1.00;;;;;;;;;;5015517;28;20053;-79
2021/09/04 12:46:38;;;;;;;2.28;1.13;;;;;;;;;;5019472;28;20056;-78
2021/09/04 12:49:19;;;;;;;2.78;1.30;;;;;;;;;;5012648;28;20119;-80
2021/09/04 12:51:46;;;;;;;2.08;0.98;;;;;;;;;;5013249;28;20122;-79
2021/09/04 12:54:13;;;;;;;2.75;1.20;;;;;;;;;;5009772;28;20107;-80
2021/09/04 12:56:43;;;;;;;9.73;1.40;;;;;;;;;;5017115;28;20033;-79
2021/09/04 12:59:10;;;;;;;2.58;1.00;;;;;;;;;;5014871;28;20103;-80
2021/09/04 13:01:37;;;;;;;2.15;1.30;;;;;;;;;;5014750;28;20490;-79
2021/09/04 13:04:04;;;;;;;2.10;1.00;;;;;;;;;;5016274;28;20558;-79
2021/09/04 13:06:31;;;;;;;2.30;1.20;;;;;;;;;;5017047;28;20049;-78
2021/09/04 13:08:58;;;;;;;2.33;1.13;;;;;;;;;;5016288;28;20125;-79
2021/09/04 13:11:25;;;;;;;3.38;1.35;;;;;;;;;;5018669;28;20054;-81
2021/09/04 13:13:52;;;;;;;2.47;0.95;;;;;;;;;;5019453;28;20026;-79
2021/09/04 13:16:18;;;;;;;2.50;1.23;;;;;;;;;;5020661;28;20053;-78
2021/09/04 13:18:46;;;;;;;2.97;1.30;;;;;;;;;;5014182;28;20053;-80
2021/09/04 13:21:12;;;;;;;2.47;1.02;;;;;;;;;;5027583;28;20096;-79
2021/09/04 13:23:39;;;;;;;3.22;1.10;;;;;;;;;;5014464;28;20061;-80
2021/09/04 13:26:06;;;;;;;2.67;1.10;;;;;;;;;;5023104;28;20060;-79
2021/09/04 13:28:33;;;;;;;2.90;1.30;;;;;;;;;;5020050;28;20052;-80
2021/09/04 13:31:01;;;;;;;2.60;1.00;;;;;;;;;;5014610;28;20606;-80
2021/09/04 13:33:28;;;;;;;2.08;1.00;;;;;;;;;;5026258;28;20111;-80
2021/09/04 13:35:55;;;;;;;4.25;1.17;;;;;;;;;;5016926;28;20060;-80
2021/09/04 13:38:22;;;;;;;4.63;1.20;;;;;;;;;;5010130;28;20049;-79
2021/09/04 13:40:48;;;;;;;2.33;1.00;;;;;;;;;;5016910;28;20053;-79
2021/09/04 13:43:14;;;;;;;2.40;1.20;;;;;;;;;;5016866;28;20058;-80
2021/09/04 13:45:41;;;;;;;3.38;1.10;;;;;;;;;;5024102;28;20092;-78
2021/09/04 13:48:07;;;;;;;2.03;1.10;;;;;;;;;;5014212;28;20504;-80
2021/09/04 13:50:34;;;;;;;2.75;0.95;;;;;;;;;;5023203;28;20149;-83
2021/09/04 13:53:00;;;;;;;3.75;1.05;;;;;;;;;;5024505;28;20065;-82
2021/09/04 13:55:27;;;;;;;1.98;0.85;;;;;;;;;;5025735;28;20061;-81
2021/09/04 13:57:53;;;;;;;2.80;1.20;;;;;;;;;;5018022;28;20077;-82
2021/09/04 14:00:20;;;;;;;2.97;1.02;;;;;;;;;;5021037;28;20034;-82
2021/09/04 14:02:46;;;;;;;1.83;0.75;;;;;;;;;;5024135;28;20064;-84
2021/09/04 14:05:13;;;;;;;4.57;1.00;;;;;;;;;;5031973;28;20038;-84
2021/09/04 14:07:39;;;;;;;3.22;1.00;;;;;;;;;;5025610;28;20033;-81
2021/09/04 14:10:06;;;;;;;1.95;1.00;;;;;;;;;;5035879;28;20041;-81
2021/09/04 14:12:32;;;;;;;4.47;1.10;;;;;;;;;;5032373;28;20034;-82
2021/09/04 14:14:58;;;;;;;4.43;1.00;;;;;;;;;;5023341;28;20453;-81
2021/09/04 14:17:25;;;;;;;2.40;0.82;;;;;;;;;;5025386;28;20061;-82
2021/09/04 14:19:51;;;;;;;2.65;0.93;;;;;;;;;;5020695;28;20050;-82
2021/09/04 14:22:18;;;;;;;3.30;1.20;;;;;;;;;;5028549;28;20061;-82
2021/09/04 14:24:44;;;;;;;2.40;0.75;;;;;;;;;;5024886;28;20061;-81
2021/09/04 14:27:10;;;;;;;3.92;1.42;;;;;;;;;;5023088;28;20057;-82
2021/09/04 14:29:37;;;;;;;1.90;0.80;;;;;;;;;;5030542;28;20513;-82
2021/09/04 14:32:03;;;;;;;3.67;1.30;;;;;;;;;;5023361;28;20072;-82
2021/09/04 14:34:30;;;;;;;2.30;1.20;;;;;;;;;;5016540;28;20065;-82
2021/09/04 14:36:56;;;;;;;2.10;1.00;;;;;;;;;;5013511;28;20061;-82
2021/09/04 14:39:22;;;;;;;2.40;1.30;;;;;;;;;;5039566;28;20141;-81
2021/09/04 14:41:49;;;;;;;4.80;1.23;;;;;;;;;;5031568;28;20095;-82
2021/09/04 14:44:15;;;;;;;3.10;1.30;;;;;;;;;;5027980;28;20065;-82